Time;durP1;ratioP1;P1;durP2;ratioP2;P2;SDS_P1;SDS_P2;PMS_P1;PMS_P2;Temp;Humidity;BMP_temperature;BMP_pressure;BME280_temperature;BME280_humidity;BME280_pressure;Samples;Min_cycle;Max_cycle;Signal;HPM_P1;HPM_P2
2022/10/26 00:05:02;;;;;;;8.57;3.07;;;13.60;99.90;;;;;;5100685;28;20694;-57
2022/10/26 00:08:08;;;;;;;5.00;2.80;;;13.50;99.90;;;;;;5114672;28;20206;-58
2022/10/26 00:14:57;;;;;;;6.33;2.50;;;13.50;99.90;;;;;;5090852;28;20568;-58
2022/10/26 00:17:26;;;;;;;6.87;2.93;;;13.40;99.90;;;;;;5094200;28;20215;-57
2022/10/26 00:19:59;;;;;;;8.67;2.67;;;13.40;99.90;;;;;;5076679;28;20180;-58
2022/10/26 00:22:29;;;;;;;4.43;2.73;;;13.40;99.90;;;;;;5094571;28;20196;-58
2022/10/26 00:24:59;;;;;;;6.10;2.50;;;13.40;99.90;;;;;;5093701;28;20826;-57
2022/10/26 00:27:29;;;;;;;3.97;2.67;;;13.40;99.90;;;;;;5093014;28;20192;-59
2022/10/26 00:29:58;;;;;;;4.80;2.83;;;13.40;99.90;;;;;;5092978;28;20646;-57
2022/10/26 00:32:26;;;;;;;3.33;2.70;;;13.30;99.90;;;;;;5093524;28;20266;-58
2022/10/26 00:35:33;;;;;;;4.20;2.80;;;13.30;99.90;;;;;;5093772;28;20215;-58
2022/10/26 00:38:16;;;;;;;6.47;2.40;;;13.30;99.90;;;;;;5083020;28;20218;-57
2022/10/26 00:40:46;;;;;;;7.83;2.63;;;13.30;99.90;;;;;;5084824;28;20202;-59
2022/10/26 00:47:29;;;;;;;5.30;2.57;;;13.30;99.90;;;;;;5077451;28;20192;-57
2022/10/26 00:50:20;;;;;;;4.73;2.33;;;13.30;99.90;;;;;;5082184;28;20196;-58
2022/10/26 00:52:52;;;;;;;5.67;2.90;;;13.20;99.90;;;;;;5063350;28;20238;-58
2022/10/26 00:55:58;;;;;;;7.37;2.73;;;13.20;99.90;;;;;;5093678;28;20187;-57
2022/10/26 00:58:54;;;;;;;7.10;2.70;;;13.10;99.90;;;;;;5093509;28;20201;-58
2022/10/26 01:02:00;;;;;;;3.40;2.60;;;13.10;99.90;;;;;;5073260;28;20257;-58
2022/10/26 01:04:33;;;;;;;8.13;2.87;;;13.00;99.90;;;;;;5092877;28;20187;-58
2022/10/26 01:10:32;;;;;;;6.03;2.73;;;12.90;99.90;;;;;;5068219;28;20202;-57
2022/10/26 01:13:02;;;;;;;4.83;2.80;;;12.90;99.90;;;;;;5092830;28;20204;-57
2022/10/26 01:20:41;;;;;;;7.80;3.17;;;12.80;99.90;;;;;;5077854;28;20167;-58
2022/10/26 01:23:45;;;;;;;5.30;2.70;;;12.80;99.90;;;;;;5093225;28;20206;-57
2022/10/26 01:33:50;;;;;;;7.13;2.43;;;12.80;99.90;;;;;;5082125;28;20186;-58
2022/10/26 01:36:27;;;;;;;4.10;2.70;;;12.80;99.90;;;;;;5071052;28;20190;-57
2022/10/26 01:39:05;;;;;;;4.73;2.63;;;12.80;99.90;;;;;;5092205;28;20195;-58
2022/10/26 01:41:46;;;;;;;6.47;2.80;;;12.80;99.90;;;;;;5089532;28;20199;-57
2022/10/26 01:44:20;;;;;;;3.77;2.50;;;12.80;99.90;;;;;;5089158;28;20211;-57
2022/10/26 01:46:55;;;;;;;4.57;2.80;;;12.80;99.90;;;;;;5092655;28;20236;-58
2022/10/26 01:49:45;;;;;;;3.90;2.57;;;12.80;99.90;;;;;;5073443;28;20195;-57
2022/10/26 01:53:04;;;;;;;6.53;2.70;;;12.80;99.90;;;;;;5074495;28;20202;-58
2022/10/26 01:56:24;;;;;;;5.60;2.50;;;12.80;99.90;;;;;;5092432;28;20195;-57
2022/10/26 01:59:32;;;;;;;4.77;2.23;;;12.80;99.90;;;;;;5083833;28;20198;-58
2022/10/26 02:02:40;;;;;;;5.10;2.40;;;12.80;99.90;;;;;;5084747;28;20679;-57
2022/10/26 02:05:31;;;;;;;3.10;2.50;;;12.80;99.90;;;;;;5090992;28;20203;-58
2022/10/26 02:08:14;;;;;;;2.83;2.47;;;12.80;99.90;;;;;;5054332;28;20203;-58
2022/10/26 02:10:53;;;;;;;6.33;2.90;;;12.80;99.90;;;;;;5082675;28;20199;-58
2022/10/26 02:14:02;;;;;;;3.50;2.33;;;12.80;99.90;;;;;;5091493;28;20229;-57
2022/10/26 02:16:47;;;;;;;5.37;2.33;;;12.80;99.90;;;;;;5058755;28;20195;-58
2022/10/26 02:19:54;;;;;;;2.67;2.47;;;12.80;99.90;;;;;;5091932;28;20199;-57
2022/10/26 02:22:26;;;;;;;3.57;2.60;;;12.80;99.90;;;;;;5092156;28;20534;-57
2022/10/26 02:25:01;;;;;;;4.50;2.30;;;12.80;99.90;;;;;;5090294;28;20207;-58
2022/10/26 02:27:34;;;;;;;4.37;2.40;;;12.80;99.90;;;;;;5091962;28;20584;-58
2022/10/26 02:30:03;;;;;;;7.40;2.50;;;12.80;99.90;;;;;;5091933;28;20661;-58
2022/10/26 02:32:44;;;;;;;4.83;2.60;;;12.80;99.90;;;;;;5074103;28;20191;-58
2022/10/26 02:35:51;;;;;;;7.27;2.60;;;12.80;99.90;;;;;;5092467;28;20183;-58
2022/10/26 02:39:11;;;;;;;7.10;2.63;;;12.90;99.90;;;;;;5091968;28;20203;-58
2022/10/26 02:45:33;;;;;;;4.73;2.33;;;12.90;99.90;;;;;;5091573;28;20226;-58
2022/10/26 02:48:23;;;;;;;5.47;2.40;;;12.90;99.90;;;;;;5066834;28;20207;-59
2022/10/26 02:51:20;;;;;;;4.83;2.60;;;12.90;99.90;;;;;;5079845;28;20661;-58
2022/10/26 02:57:42;;;;;;;3.70;2.33;;;12.90;99.90;;;;;;5073130;28;20646;-58
2022/10/26 03:00:36;;;;;;;3.30;2.70;;;12.90;99.90;;;;;;5091282;28;20188;-58
2022/10/26 03:03:24;;;;;;;3.60;2.23;;;12.90;99.90;;;;;;5091887;28;20202;-57
2022/10/26 03:09:54;;;;;;;5.03;2.50;;;12.90;99.90;;;;;;5101031;28;20246;-57
2022/10/26 03:13:01;;;;;;;10.13;2.80;;;13.00;99.90;;;;;;5107171;28;20202;-58
2022/10/26 03:15:30;;;;;;;3.27;2.80;;;13.10;99.90;;;;;;5104998;28;20187;-58
2022/10/26 03:18:35;;;;;;;7.00;2.57;;;13.10;99.90;;;;;;5115777;28;20183;-58
2022/10/26 03:21:10;;;;;;;6.33;2.87;;;13.20;99.90;;;;;;5109970;28;20688;-58
2022/10/26 03:23:41;;;;;;;6.20;2.77;;;13.30;99.90;;;;;;5112197;28;20190;-59
2022/10/26 03:26:09;;;;;;;6.60;2.90;;;13.30;99.90;;;;;;5115963;28;20580;-58
2022/10/26 03:33:17;;;;;;;6.00;2.50;;;13.40;99.90;;;;;;5102164;28;20178;-59
2022/10/26 03:36:12;;;;;;;6.43;2.70;;;13.40;99.90;;;;;;5097077;28;20645;-58
2022/10/26 03:38:40;;;;;;;6.13;2.50;;;13.50;99.90;;;;;;5115559;28;20517;-59
2022/10/26 03:41:09;;;;;;;5.03;2.50;;;13.50;99.90;;;;;;5115011;28;20199;-58
2022/10/26 03:43:37;;;;;;;3.57;2.70;;;13.60;99.90;;;;;;5115727;28;20219;-58
2022/10/26 03:46:08;;;;;;;6.53;2.77;;;13.60;99.90;;;;;;5115550;28;20195;-59
2022/10/26 03:48:41;;;;;;;3.30;2.63;;;13.70;99.90;;;;;;5115572;28;20220;-58
2022/10/26 03:51:50;;;;;;;9.53;2.80;;;13.80;99.90;;;;;;5114738;28;20191;-59
2022/10/26 03:54:25;;;;;;;5.87;2.60;;;13.80;99.90;;;;;;5114404;28;20194;-58
2022/10/26 03:56:53;;;;;;;2.43;2.20;;;13.80;99.90;;;;;;5114733;28;20193;-58
2022/10/26 03:59:26;;;;;;;7.83;2.43;;;13.80;99.90;;;;;;5115164;28;20193;-58
2022/10/26 04:01:56;;;;;;;4.03;2.27;;;13.80;99.90;;;;;;5114627;28;20206;-58
2022/10/26 04:05:02;;;;;;;5.30;2.60;;;13.80;99.90;;;;;;5094813;28;20206;-58
2022/10/26 04:08:42;;;;;;;2.97;2.47;;;13.70;99.90;;;;;;5089191;28;20206;-58
2022/10/26 04:11:14;;;;;;;4.10;2.13;;;13.70;99.90;;;;;;5094499;28;20195;-59
2022/10/26 04:14:24;;;;;;;4.43;2.20;;;13.70;99.90;;;;;;5076166;28;20241;-58
2022/10/26 04:16:54;;;;;;;3.33;2.40;;;13.70;99.90;;;;;;5058224;28;20716;-59
2022/10/26 04:19:22;;;;;;;2.10;2.00;;;13.70;99.90;;;;;;5072787;28;20206;-58
2022/10/26 04:21:51;;;;;;;3.00;2.50;;;13.80;99.90;;;;;;5059961;28;20199;-58
2022/10/26 04:24:20;;;;;;;2.83;1.93;;;13.90;99.90;;;;;;5093866;28;20203;-58
2022/10/26 04:26:49;;;;;;;2.87;2.07;;;13.90;99.90;;;;;;5093549;28;20582;-58
2022/10/26 04:29:23;;;;;;;5.20;2.13;;;13.90;99.90;;;;;;5075936;28;20203;-58
2022/10/26 04:32:12;;;;;;;4.30;1.87;;;13.90;99.90;;;;;;5089270;28;20197;-58
2022/10/26 04:34:44;;;;;;;4.73;2.43;;;13.90;99.90;;;;;;5081887;28;20199;-58
2022/10/26 04:37:13;;;;;;;2.47;2.20;;;14.10;99.90;;;;;;5084972;28;20195;-58
2022/10/26 04:39:43;;;;;;;6.30;2.30;;;14.20;99.90;;;;;;5085047;28;20192;-58
2022/10/26 04:46:15;;;;;;;5.30;2.20;;;14.30;99.90;;;;;;5093610;28;20184;-58
2022/10/26 04:48:47;;;;;;;2.87;1.93;;;14.30;99.90;;;;;;5093648;28;20208;-58
2022/10/26 04:55:27;;;;;;;3.93;2.30;;;14.30;99.90;;;;;;5091304;28;20199;-58
2022/10/26 04:58:22;;;;;;;3.27;2.20;;;14.40;99.90;;;;;;5093496;28;20518;-58
2022/10/26 05:00:53;;;;;;;3.60;2.20;;;14.50;99.90;;;;;;5087430;28;20693;-58
2022/10/26 05:07:25;;;;;;;2.57;2.00;;;14.70;99.90;;;;;;5072583;28;20199;-58
2022/10/26 05:09:54;;;;;;;2.30;1.80;;;14.60;99.90;;;;;;5065482;28;20231;-58
2022/10/26 05:12:23;;;;;;;3.57;2.20;;;14.60;99.90;;;;;;5094459;28;20199;-59
2022/10/26 05:14:52;;;;;;;2.93;2.03;;;14.70;99.90;;;;;;5111182;28;20202;-58
2022/10/26 05:17:20;;;;;;;3.70;1.80;;;14.70;99.90;;;;;;5113451;28;20199;-58
2022/10/26 05:19:56;;;;;;;1.97;1.80;;;14.80;99.90;;;;;;5113865;28;20191;-59
2022/10/26 05:22:28;;;;;;;4.40;2.10;;;14.80;99.90;;;;;;5113859;28;20190;-59
2022/10/26 05:25:23;;;;;;;5.33;2.50;;;14.80;99.90;;;;;;5103213;28;20203;-58
2022/10/26 05:27:52;;;;;;;3.40;2.00;;;14.90;99.90;;;;;;5106580;28;20213;-58
2022/10/26 05:38:28;;;;;;;1.90;1.80;;;14.80;99.90;;;;;;5104165;28;20202;-58
2022/10/26 05:41:34;;;;;;;3.33;2.10;;;14.80;99.90;;;;;;5124018;27;20194;-58
2022/10/26 05:44:03;;;;;;;6.23;1.87;;;14.90;99.90;;;;;;5108031;28;20210;-59
2022/10/26 05:46:31;;;;;;;5.53;2.20;;;14.90;99.90;;;;;;5092182;28;20200;-59
2022/10/26 05:49:01;;;;;;;3.53;2.00;;;14.90;99.90;;;;;;5109098;28;20218;-58
2022/10/26 05:51:32;;;;;;;7.80;1.87;;;15.00;99.90;;;;;;5113913;28;20224;-59
2022/10/26 05:54:01;;;;;;;2.07;1.93;;;15.00;99.90;;;;;;5113447;28;20205;-58
2022/10/26 05:56:57;;;;;;;3.70;2.20;;;14.90;99.90;;;;;;5095626;28;20202;-58
2022/10/26 06:00:08;;;;;;;2.43;1.90;;;14.90;99.90;;;;;;5113130;28;20273;-58
2022/10/26 06:03:09;;;;;;;4.93;2.43;;;15.00;99.90;;;;;;5110844;28;20251;-58
2022/10/26 06:05:45;;;;;;;7.67;2.60;;;15.00;99.90;;;;;;5113383;28;20532;-58
2022/10/26 06:08:14;;;;;;;3.43;2.17;;;15.10;99.90;;;;;;5095470;28;20228;-58
2022/10/26 06:10:44;;;;;;;5.10;2.00;;;15.20;99.90;;;;;;5095819;28;20310;-58
2022/10/26 06:13:13;;;;;;;4.33;2.30;;;15.20;99.90;;;;;;5113799;28;20553;-57
2022/10/26 06:15:50;;;;;;;5.33;2.30;;;15.10;99.90;;;;;;5113867;28;20191;-58
2022/10/26 06:18:28;;;;;;;5.97;2.23;;;15.10;99.90;;;;;;5079049;28;20637;-58
2022/10/26 06:21:10;;;;;;;2.17;2.07;;;15.10;99.90;;;;;;5104193;28;20195;-58
2022/10/26 06:23:48;;;;;;;6.23;2.53;;;15.00;99.90;;;;;;5075192;28;20194;-58
2022/10/26 06:26:30;;;;;;;11.30;2.47;;;15.00;99.90;;;;;;5093216;28;20188;-57
2022/10/26 06:29:10;;;;;;;5.93;2.30;;;15.00;99.90;;;;;;5093054;28;20217;-58
2022/10/26 06:31:39;;;;;;;5.70;2.30;;;14.90;99.90;;;;;;5093503;28;20187;-57
2022/10/26 06:34:10;;;;;;;3.57;2.33;;;14.90;99.90;;;;;;5104341;28;20202;-57
2022/10/26 06:36:40;;;;;;;5.23;2.13;;;14.90;99.90;;;;;;5113389;28;20677;-57
2022/10/26 06:39:12;;;;;;;4.20;2.40;;;14.90;99.90;;;;;;5112727;28;20187;-57
2022/10/26 06:41:42;;;;;;;3.13;2.30;;;14.90;99.90;;;;;;5113044;28;20186;-58
2022/10/26 06:44:19;;;;;;;3.77;2.47;;;14.80;99.90;;;;;;5096732;28;20251;-57
2022/10/26 06:46:52;;;;;;;7.57;2.40;;;14.80;99.90;;;;;;5090034;28;20202;-58
2022/10/26 06:49:27;;;;;;;3.97;2.33;;;14.80;99.90;;;;;;5104552;28;20198;-59
2022/10/26 06:51:59;;;;;;;4.83;2.40;;;14.80;99.90;;;;;;5117390;28;20179;-59
2022/10/26 06:54:43;;;;;;;8.40;2.70;;;14.80;99.90;;;;;;5099187;28;20199;-59
2022/10/26 06:57:14;;;;;;;4.30;2.40;;;14.80;99.90;;;;;;5113621;27;20199;-59
2022/10/26 06:59:47;;;;;;;5.23;2.70;;;14.90;99.90;;;;;;5131283;27;20198;-58
2022/10/26 07:02:15;;;;;;;2.73;2.47;;;15.00;99.90;;;;;;5117103;28;20195;-58
2022/10/26 07:04:44;;;;;;;6.50;2.67;;;15.00;99.90;;;;;;5117015;28;20195;-58
2022/10/26 07:07:15;;;;;;;3.70;2.30;;;15.00;99.90;;;;;;5076240;28;20191;-58
2022/10/26 07:09:44;;;;;;;3.57;2.60;;;15.00;99.90;;;;;;5115046;28;20234;-59
2022/10/26 07:12:14;;;;;;;5.30;2.50;;;15.00;99.90;;;;;;5099124;28;20660;-58
2022/10/26 07:14:43;;;;;;;5.57;2.37;;;15.00;99.90;;;;;;5116774;28;20219;-58
2022/10/26 07:17:12;;;;;;;7.47;3.10;;;15.10;99.90;;;;;;5098883;28;20241;-58
2022/10/26 07:19:43;;;;;;;2.77;2.57;;;15.10;99.90;;;;;;5116867;28;20194;-58
2022/10/26 07:22:12;;;;;;;4.50;2.70;;;15.10;99.90;;;;;;5116902;28;20199;-58
2022/10/26 07:24:40;;;;;;;6.40;2.80;;;15.20;99.90;;;;;;5098769;28;20642;-58
2022/10/26 07:27:09;;;;;;;10.17;2.63;;;15.20;99.90;;;;;;5113140;28;20194;-58
2022/10/26 07:29:38;;;;;;;3.77;2.80;;;15.30;99.90;;;;;;5112347;28;20293;-59
2022/10/26 07:32:07;;;;;;;2.70;2.50;;;15.40;99.90;;;;;;5098363;28;20195;-58
2022/10/26 07:34:36;;;;;;;5.77;2.60;;;15.40;99.90;;;;;;5098538;28;20194;-59
2022/10/26 07:37:04;;;;;;;6.30;2.60;;;15.50;99.90;;;;;;5098522;28;20201;-58
2022/10/26 07:39:33;;;;;;;3.03;2.43;;;15.60;99.90;;;;;;5098813;28;20542;-58
2022/10/26 07:42:01;;;;;;;6.03;2.80;;;15.60;99.90;;;;;;5116101;28;20194;-58
2022/10/26 07:44:30;;;;;;;15.50;3.20;;;15.70;99.90;;;;;;5104663;28;20215;-59
2022/10/26 07:47:01;;;;;;;2.77;2.50;;;15.70;99.90;;;;;;5098708;28;20203;-59
2022/10/26 07:49:29;;;;;;;3.43;2.30;;;15.80;99.90;;;;;;5115591;28;20534;-58
2022/10/26 07:51:58;;;;;;;4.40;2.70;;;15.90;99.90;;;;;;5116409;28;20196;-59
2022/10/26 07:54:27;;;;;;;4.00;2.80;;;16.00;99.90;;;;;;5116638;28;20208;-59
2022/10/26 07:56:56;;;;;;;3.20;2.53;;;16.00;99.90;;;;;;5109075;28;20218;-59
2022/10/26 07:59:25;;;;;;;6.87;2.60;;;16.00;99.90;;;;;;5099556;28;20211;-58
2022/10/26 08:01:54;;;;;;;7.03;2.87;;;16.20;99.90;;;;;;5094749;28;20283;-58
2022/10/26 08:04:24;;;;;;;4.57;2.50;;;16.20;99.90;;;;;;5115697;28;20198;-58
2022/10/26 08:06:52;;;;;;;6.87;2.63;;;16.30;99.90;;;;;;5115816;28;20197;-58
2022/10/26 08:09:21;;;;;;;3.17;2.57;;;16.40;99.90;;;;;;5115657;28;20228;-58
2022/10/26 08:11:49;;;;;;;6.80;2.67;;;16.50;99.90;;;;;;5113672;27;20198;-58
2022/10/26 08:14:18;;;;;;;3.50;2.63;;;16.60;99.90;;;;;;5104784;27;20280;-59
2022/10/26 08:16:46;;;;;;;4.00;2.50;;;16.70;99.90;;;;;;5109347;28;20204;-58
2022/10/26 08:19:15;;;;;;;8.37;3.07;;;16.80;99.90;;;;;;5115922;28;20200;-58
2022/10/26 08:21:44;;;;;;;7.57;2.80;;;16.70;99.90;;;;;;5115631;28;20201;-58
2022/10/26 08:24:13;;;;;;;4.50;2.63;;;16.80;99.90;;;;;;5114539;28;20198;-59
2022/10/26 08:26:42;;;;;;;5.10;2.77;;;16.90;99.90;;;;;;5117571;27;20212;-58
2022/10/26 08:29:11;;;;;;;6.07;2.63;;;16.90;99.90;;;;;;5115655;28;20212;-58
2022/10/26 08:31:40;;;;;;;4.50;2.60;;;17.00;99.90;;;;;;5115381;28;20194;-58
2022/10/26 08:34:08;;;;;;;3.87;2.30;;;17.10;99.90;;;;;;5115470;28;20239;-59
2022/10/26 08:36:37;;;;;;;6.37;2.63;;;17.10;99.90;;;;;;5108581;28;20637;-58
2022/10/26 08:39:07;;;;;;;7.00;2.53;;;17.20;99.90;;;;;;5115863;28;20191;-58
2022/10/26 08:41:38;;;;;;;6.97;2.67;;;17.20;99.90;;;;;;5116476;27;20677;-58
2022/10/26 08:44:25;;;;;;;8.23;2.67;;;17.20;99.90;;;;;;5113626;27;20224;-58
2022/10/26 08:46:58;;;;;;;5.93;2.60;;;17.30;99.90;;;;;;5115024;28;20333;-58
2022/10/26 08:49:30;;;;;;;7.53;2.80;;;17.30;99.90;;;;;;5094103;28;20221;-58
2022/10/26 08:52:02;;;;;;;3.27;2.60;;;17.30;99.90;;;;;;5096074;28;20245;-59
2022/10/26 08:54:40;;;;;;;2.57;2.37;;;17.30;99.90;;;;;;5115033;28;20183;-59
2022/10/26 08:57:16;;;;;;;3.80;2.40;;;17.40;99.90;;;;;;5115249;28;20202;-59
2022/10/26 08:59:51;;;;;;;3.43;2.40;;;17.40;99.90;;;;;;5112595;28;20644;-59
2022/10/26 09:02:20;;;;;;;4.77;2.60;;;17.60;99.90;;;;;;5114265;28;20228;-58
2022/10/26 09:04:48;;;;;;;8.00;2.80;;;17.60;99.90;;;;;;5114184;28;20592;-59
2022/10/26 09:07:41;;;;;;;7.17;2.73;;;17.70;99.90;;;;;;5114849;28;20532;-59
2022/10/26 09:10:24;;;;;;;5.43;2.60;;;17.80;99.90;;;;;;5094373;28;20234;-59
2022/10/26 09:12:58;;;;;;;4.67;2.23;;;17.90;99.90;;;;;;5110027;28;20218;-59
2022/10/26 09:15:33;;;;;;;2.50;2.30;;;18.00;99.90;;;;;;5114588;28;20191;-59
2022/10/26 09:18:09;;;;;;;3.77;2.40;;;18.00;99.90;;;;;;5111267;28;20195;-58
2022/10/26 09:20:49;;;;;;;4.00;2.20;;;18.10;99.90;;;;;;5110005;28;20282;-59
2022/10/26 09:23:31;;;;;;;4.93;2.27;;;18.10;99.90;;;;;;5114096;28;20189;-59
2022/10/26 09:26:02;;;;;;;2.67;2.20;;;18.20;99.90;;;;;;5114794;28;20537;-59
2022/10/26 09:28:37;;;;;;;7.17;2.33;;;18.40;99.90;;;;;;5097949;28;20237;-59
2022/10/26 09:31:06;;;;;;;2.97;2.20;;;18.50;99.90;;;;;;5076040;28;20211;-59
2022/10/26 09:33:39;;;;;;;3.30;2.33;;;18.50;99.90;;;;;;5107461;28;20211;-59
2022/10/26 09:36:12;;;;;;;5.23;2.20;;;18.60;99.90;;;;;;5114604;28;20545;-59
2022/10/26 09:38:50;;;;;;;4.27;2.10;;;18.70;99.90;;;;;;5114028;28;20522;-58
2022/10/26 09:41:26;;;;;;;3.33;2.10;;;18.60;99.90;;;;;;5094189;28;20166;-59
2022/10/26 09:44:04;;;;;;;6.27;2.27;;;18.70;99.90;;;;;;5111936;28;20211;-59
2022/10/26 09:46:37;;;;;;;2.43;1.93;;;18.70;99.90;;;;;;5095976;28;20198;-59
2022/10/26 09:49:08;;;;;;;3.43;2.00;;;18.80;99.90;;;;;;5106055;28;20668;-58
2022/10/26 09:51:41;;;;;;;5.73;2.20;;;18.90;99.90;;;;;;5114091;28;20210;-59
2022/10/26 09:54:15;;;;;;;4.03;2.23;;;19.00;99.90;;;;;;5114254;28;20186;-58
2022/10/26 09:56:48;;;;;;;3.50;1.77;;;19.10;99.90;;;;;;5096237;28;20607;-59
2022/10/26 09:59:20;;;;;;;4.17;2.30;;;19.10;99.90;;;;;;5114244;28;20534;-58
2022/10/26 10:01:48;;;;;;;2.20;2.00;;;19.10;99.90;;;;;;5095398;28;20649;-58
2022/10/26 10:04:53;;;;;;;4.83;2.60;;;19.30;99.90;;;;;;5095778;28;20202;-59
2022/10/26 10:07:21;;;;;;;2.87;1.93;;;19.40;99.90;;;;;;5104676;28;20274;-58
2022/10/26 10:10:07;;;;;;;5.60;2.57;;;19.40;99.90;;;;;;5113498;28;20226;-60
2022/10/26 10:12:37;;;;;;;5.90;2.47;;;19.50;99.90;;;;;;5113926;28;20182;-60
2022/10/26 10:15:16;;;;;;;3.33;1.90;;;19.50;99.90;;;;;;5113928;28;20198;-60
2022/10/26 10:17:50;;;;;;;2.30;2.10;;;19.50;99.90;;;;;;5113773;28;20190;-59
2022/10/26 10:20:30;;;;;;;4.80;2.37;;;19.50;99.90;;;;;;5113908;28;20226;-59
2022/10/26 10:23:01;;;;;;;2.97;2.10;;;19.50;99.90;;;;;;5113712;28;20251;-59
2022/10/26 10:25:35;;;;;;;3.70;1.80;;;19.60;99.90;;;;;;5113118;28;20190;-59
2022/10/26 10:28:21;;;;;;;2.23;1.90;;;19.70;99.90;;;;;;5094573;28;20198;-59
2022/10/26 10:30:56;;;;;;;7.83;2.33;;;19.80;99.90;;;;;;5095302;28;20217;-59
2022/10/26 10:33:33;;;;;;;1.70;1.60;;;19.80;99.90;;;;;;5110982;28;20271;-59
2022/10/26 10:36:03;;;;;;;2.70;1.83;;;19.80;99.90;;;;;;5092616;28;20202;-59
2022/10/26 10:38:38;;;;;;;2.20;2.00;;;19.70;99.90;;;;;;5111391;28;20584;-59
2022/10/26 10:41:14;;;;;;;4.00;2.10;;;19.80;99.90;;;;;;5111899;28;20214;-58
2022/10/26 10:43:47;;;;;;;4.40;2.17;;;19.90;99.90;;;;;;5101956;28;20688;-59
2022/10/26 10:46:20;;;;;;;4.57;1.67;;;20.00;99.90;;;;;;5093322;28;20184;-59
2022/10/26 10:48:54;;;;;;;4.20;1.80;;;20.20;99.90;;;;;;5111848;28;20349;-59
2022/10/26 10:51:26;;;;;;;2.23;1.63;;;20.20;99.90;;;;;;5074448;28;20664;-58
2022/10/26 10:53:55;;;;;;;3.43;1.90;;;20.30;99.90;;;;;;5095516;28;20184;-60
2022/10/26 10:56:33;;;;;;;3.90;1.70;;;20.40;99.90;;;;;;5090040;28;20217;-59
2022/10/26 10:59:30;;;;;;;3.13;1.83;;;20.40;99.90;;;;;;5113201;28;20189;-60
2022/10/26 11:02:23;;;;;;;3.40;1.50;;;20.30;99.90;;;;;;5107315;28;20582;-59
2022/10/26 11:05:01;;;;;;;2.77;1.77;;;20.30;99.90;;;;;;5089492;28;20282;-59
2022/10/26 11:07:36;;;;;;;3.37;1.80;;;20.20;99.90;;;;;;5113513;28;20633;-59
2022/10/26 11:10:08;;;;;;;6.17;1.90;;;20.30;99.90;;;;;;5098330;28;20230;-59
2022/10/26 11:12:44;;;;;;;3.77;2.07;;;20.50;99.90;;;;;;5095244;28;20199;-59
2022/10/26 11:15:18;;;;;;;3.40;1.90;;;20.60;99.90;;;;;;5111730;28;20198;-60
2022/10/26 11:17:55;;;;;;;2.17;1.87;;;20.50;99.90;;;;;;5081415;28;20561;-59
2022/10/26 11:20:26;;;;;;;5.97;1.87;;;20.50;99.90;;;;;;5094861;28;20187;-59
2022/10/26 11:23:04;;;;;;;2.40;1.70;;;20.50;99.90;;;;;;5098137;28;20197;-59
2022/10/26 11:25:39;;;;;;;3.70;1.70;;;20.60;99.90;;;;;;5112653;28;20686;-58
2022/10/26 11:28:15;;;;;;;4.73;2.13;;;20.60;99.90;;;;;;5094821;28;20710;-60
2022/10/26 11:30:49;;;;;;;3.10;1.87;;;20.70;99.90;;;;;;5105126;28;20229;-59
2022/10/26 11:33:22;;;;;;;6.33;1.80;;;20.80;99.90;;;;;;5113363;28;20278;-59
2022/10/26 11:35:56;;;;;;;5.77;1.80;;;20.90;99.90;;;;;;5114210;28;20217;-59
2022/10/26 11:38:33;;;;;;;4.07;2.20;;;21.00;99.90;;;;;;5090282;28;20187;-59
2022/10/26 11:41:26;;;;;;;10.27;2.03;;;21.00;99.90;;;;;;5102672;28;20550;-59
2022/10/26 11:44:01;;;;;;;2.40;1.80;;;20.80;99.90;;;;;;5111640;28;20217;-60
2022/10/26 11:46:38;;;;;;;3.90;2.00;;;20.80;99.90;;;;;;5098456;28;20218;-60
2022/10/26 11:49:17;;;;;;;8.50;2.60;;;20.80;99.90;;;;;;5067237;28;20195;-59
2022/10/26 11:51:55;;;;;;;5.93;1.97;;;20.80;99.90;;;;;;5094830;28;20207;-59
2022/10/26 11:54:29;;;;;;;3.47;1.80;;;20.80;99.90;;;;;;5096089;28;20553;-59
2022/10/26 11:57:00;;;;;;;5.67;1.70;;;20.80;99.90;;;;;;5086895;28;20307;-60
2022/10/26 11:59:32;;;;;;;4.23;1.70;;;20.80;99.90;;;;;;5115386;28;20665;-59
2022/10/26 12:05:46;;;;;;;4.77;1.93;;;20.80;99.90;;;;;;5108916;28;20233;-59
2022/10/26 12:08:47;;;;;;;3.97;2.17;;;20.80;99.90;;;;;;5096274;28;20278;-59
2022/10/26 12:12:06;;;;;;;4.90;1.90;;;20.70;99.90;;;;;;5081001;28;20222;-59
2022/10/26 12:14:42;;;;;;;1.97;1.77;;;20.90;99.90;;;;;;5084272;28;20638;-59
2022/10/26 12:21:01;;;;;;;5.40;1.77;;;21.00;99.90;;;;;;5074931;28;20199;-59
2022/10/26 12:23:38;;;;;;;2.80;1.53;;;21.20;99.90;;;;;;5090041;28;20191;-59
2022/10/26 12:26:49;;;;;;;3.90;1.57;;;21.20;99.90;;;;;;5093429;28;20192;-59
2022/10/26 12:29:35;;;;;;;2.23;1.50;;;21.20;99.90;;;;;;5092200;28;20215;-60
2022/10/26 12:32:52;;;;;;;4.63;1.90;;;21.40;99.90;;;;;;5089602;28;20219;-59
2022/10/26 12:35:47;;;;;;;3.80;1.70;;;21.40;99.90;;;;;;5086073;28;20192;-60
2022/10/26 12:38:53;;;;;;;5.47;1.97;;;21.30;99.90;;;;;;5087095;28;20190;-59
2022/10/26 12:45:16;;;;;;;5.63;3.33;;;21.40;99.90;;;;;;5086666;28;20639;-59
2022/10/26 12:48:08;;;;;;;5.67;1.83;;;21.60;99.90;;;;;;5082868;28;20525;-59
2022/10/26 12:51:35;;;;;;;6.13;1.73;;;21.50;99.90;;;;;;5094075;28;20669;-59
2022/10/26 12:59:02;;;;;;;1.47;1.30;;;21.50;99.90;;;;;;5073878;28;20173;-59
2022/10/26 13:02:01;;;;;;;4.40;1.57;;;21.50;99.90;;;;;;5082266;28;20264;-59
2022/10/26 13:04:59;;;;;;;2.50;1.80;;;21.40;99.90;;;;;;5093015;28;20200;-59
2022/10/26 13:07:34;;;;;;;8.83;2.27;;;21.50;99.90;;;;;;5081002;28;20234;-58
2022/10/26 13:10:05;;;;;;;7.27;1.57;;;21.60;99.90;;;;;;5090662;28;20239;-59
2022/10/26 13:13:05;;;;;;;6.37;1.60;;;21.70;99.90;;;;;;5057723;28;20216;-60
2022/10/26 13:15:39;;;;;;;4.17;1.67;;;21.60;99.90;;;;;;5074824;28;20275;-59
2022/10/26 13:18:17;;;;;;;4.17;1.73;;;21.60;99.90;;;;;;5086289;28;20545;-59
2022/10/26 13:21:07;;;;;;;3.03;1.80;;;21.40;99.90;;;;;;5074695;28;20515;-58
2022/10/26 13:23:40;;;;;;;3.73;1.57;;;21.30;99.90;;;;;;5075280;28;20549;-59
2022/10/26 13:26:11;;;;;;;3.53;1.57;;;21.30;99.90;;;;;;5093059;28;20206;-60
2022/10/26 13:28:46;;;;;;;3.20;1.40;;;21.30;99.90;;;;;;5093224;28;20198;-59
2022/10/26 13:31:52;;;;;;;5.63;1.60;;;21.20;99.90;;;;;;5092846;28;20209;-59
2022/10/26 13:38:52;;;;;;;2.40;1.53;;;21.40;99.90;;;;;;5070387;28;20630;-59
2022/10/26 13:41:29;;;;;;;3.13;1.60;;;21.50;99.90;;;;;;5086596;28;20204;-60
2022/10/26 13:44:03;;;;;;;1.47;1.43;;;21.50;99.90;;;;;;5089975;28;20187;-59
2022/10/26 13:50:44;;;;;;;6.23;1.70;;;21.50;99.90;;;;;;5082556;28;20203;-59
2022/10/26 13:53:23;;;;;;;4.73;1.77;;;21.50;99.90;;;;;;5089790;28;20209;-60
2022/10/26 14:00:16;;;;;;;4.23;1.60;;;21.70;99.90;;;;;;5081140;28;20558;-59
2022/10/26 14:02:44;;;;;;;2.33;1.50;;;21.70;99.90;;;;;;5092506;28;20194;-60
2022/10/26 14:09:36;;;;;;;7.33;1.60;;;21.60;99.90;;;;;;5055506;28;20296;-59
2022/10/26 14:12:05;;;;;;;5.13;1.67;;;21.50;99.90;;;;;;5100165;28;20270;-60
2022/10/26 14:18:07;;;;;;;2.07;1.83;;;21.60;99.90;;;;;;5077479;28;20218;-59
2022/10/26 14:21:06;;;;;;;3.50;1.60;;;21.80;99.90;;;;;;5091297;28;20191;-59
2022/10/26 14:23:55;;;;;;;8.67;2.23;;;21.80;99.90;;;;;;5100127;28;20198;-59
2022/10/26 14:26:28;;;;;;;6.47;1.60;;;21.70;99.90;;;;;;5091535;28;20198;-59
2022/10/26 14:29:34;;;;;;;7.90;1.57;;;21.60;99.90;;;;;;5075010;28;20200;-59
2022/10/26 14:32:20;;;;;;;4.30;1.90;;;21.60;99.90;;;;;;5072081;28;20701;-59
2022/10/26 14:35:31;;;;;;;7.73;2.00;;;21.50;99.90;;;;;;5084625;28;20194;-59
2022/10/26 14:38:04;;;;;;;4.23;1.50;;;21.30;99.90;;;;;;5091561;28;20690;-59
2022/10/26 14:45:33;;;;;;;2.77;1.60;;;21.30;99.90;;;;;;5064035;28;20182;-59
2022/10/26 14:48:24;;;;;;;4.10;1.40;;;21.20;99.90;;;;;;5081928;28;20203;-59
2022/10/26 14:51:32;;;;;;;4.23;1.80;;;21.20;99.90;;;;;;5086500;28;20199;-59
2022/10/26 14:54:04;;;;;;;6.43;1.60;;;21.20;99.90;;;;;;5073915;28;20645;-59
2022/10/26 14:56:40;;;;;;;2.97;1.63;;;21.10;99.90;;;;;;5094385;28;20203;-59
2022/10/26 14:59:22;;;;;;;5.17;2.00;;;21.00;99.90;;;;;;5079190;28;20199;-59
2022/10/26 15:01:53;;;;;;;5.37;1.70;;;20.90;99.90;;;;;;5082837;28;20203;-59
2022/10/26 15:04:29;;;;;;;5.80;1.60;;;20.90;99.90;;;;;;5091827;28;20249;-58
2022/10/26 15:07:36;;;;;;;6.67;1.70;;;20.80;99.90;;;;;;5071774;28;20198;-59
2022/10/26 15:10:06;;;;;;;3.53;1.83;;;20.80;99.90;;;;;;5086686;28;20222;-59
2022/10/26 15:13:16;;;;;;;2.10;1.83;;;20.70;99.90;;;;;;5112361;28;20213;-59
2022/10/26 15:19:28;;;;;;;3.37;1.67;;;20.60;99.90;;;;;;5102489;28;20285;-59
2022/10/26 15:22:21;;;;;;;4.77;1.70;;;20.50;99.90;;;;;;5114714;28;20213;-59
2022/10/26 15:24:51;;;;;;;5.17;1.73;;;20.40;99.90;;;;;;5110140;28;20893;-60
2022/10/26 15:36:19;;;;;;;4.37;1.83;;;20.20;99.90;;;;;;5115294;28;20269;-59
2022/10/26 15:38:54;;;;;;;4.07;1.90;;;20.20;99.90;;;;;;5115422;28;20195;-60
2022/10/26 15:41:25;;;;;;;3.20;1.80;;;20.20;99.90;;;;;;5108079;28;20541;-60
2022/10/26 15:43:57;;;;;;;3.90;1.67;;;20.10;99.90;;;;;;5113329;28;20642;-59